sensor_id;sensor_type;location;lat;lon;timestamp;pressure;altitude;pressure_sealevel;temperature;humidity
28306;BME280;7516;43.570;1.448;2023-07-13T15:10:49;100039.38;;;26.51;51.56
28306;BME280;7516;43.570;1.448;2023-07-13T15:13:18;100048.81;;;28.28;40.46
28306;BME280;7516;43.570;1.448;2023-07-13T15:15:48;100049.22;;;28.84;35.95
28306;BME280;7516;43.570;1.448;2023-07-13T15:18:17;100059.50;;;29.35;35.22
28306;BME280;7516;43.570;1.448;2023-07-13T15:20:46;100051.66;;;29.33;35.18
28306;BME280;7516;43.570;1.448;2023-07-13T15:23:14;100051.22;;;29.26;34.97
28306;BME280;7516;43.570;1.448;2023-07-13T15:25:44;100052.50;;;29.05;35.09
28306;BME280;7516;43.570;1.448;2023-07-13T15:28:13;100054.56;;;29.13;34.36
28306;BME280;7516;43.570;1.448;2023-07-13T15:30:42;100047.09;;;29.05;35.04
28306;BME280;7516;43.570;1.448;2023-07-13T15:33:13;100065.13;;;29.62;33.25
28306;BME280;7516;43.570;1.448;2023-07-13T15:35:43;100051.19;;;29.74;32.90
28306;BME280;7516;43.570;1.448;2023-07-13T15:38:17;100049.28;;;29.74;32.87
28306;BME280;7516;43.570;1.448;2023-07-13T15:40:45;100051.66;;;29.09;33.71
28306;BME280;7516;43.570;1.448;2023-07-13T15:43:15;100051.25;;;28.63;34.83
28306;BME280;7516;43.570;1.448;2023-07-13T15:45:43;100045.66;;;28.55;35.28
28306;BME280;7516;43.570;1.448;2023-07-13T15:48:17;100041.47;;;28.38;36.06
28306;BME280;7516;43.570;1.448;2023-07-13T15:50:46;100031.91;;;28.17;35.98
28306;BME280;7516;43.570;1.448;2023-07-13T15:53:17;100028.06;;;28.28;35.62
28306;BME280;7516;43.570;1.448;2023-07-13T15:55:46;100030.31;;;28.06;35.87
28306;BME280;7516;43.570;1.448;2023-07-13T15:58:15;100024.94;;;28.06;35.91
28306;BME280;7516;43.570;1.448;2023-07-13T16:00:43;100037.84;;;28.14;35.90
28306;BME280;7516;43.570;1.448;2023-07-13T16:03:11;100034.63;;;28.12;35.68
28306;BME280;7516;43.570;1.448;2023-07-13T16:05:39;100027.34;;;28.07;35.23
28306;BME280;7516;43.570;1.448;2023-07-13T16:08:09;100031.91;;;28.17;35.13
28306;BME280;7516;43.570;1.448;2023-07-13T16:10:42;100023.69;;;27.88;35.49
28306;BME280;7516;43.570;1.448;2023-07-13T16:13:16;100016.84;;;28.79;33.78
28306;BME280;7516;43.570;1.448;2023-07-13T16:15:45;100013.00;;;29.80;32.33
28306;BME280;7516;43.570;1.448;2023-07-13T16:18:13;100002.63;;;29.21;33.54
28306;BME280;7516;43.570;1.448;2023-07-13T16:20:43;100010.22;;;29.67;31.76
28306;BME280;7516;43.570;1.448;2023-07-13T16:23:12;100003.78;;;30.19;30.93
28306;BME280;7516;43.570;1.448;2023-07-13T16:25:41;100008.31;;;30.75;31.63
28306;BME280;7516;43.570;1.448;2023-07-13T16:28:10;100007.75;;;31.46;30.81
28306;BME280;7516;43.570;1.448;2023-07-13T16:30:39;100013.81;;;31.29;29.97
28306;BME280;7516;43.570;1.448;2023-07-13T16:33:07;100011.28;;;31.47;30.23
28306;BME280;7516;43.570;1.448;2023-07-13T16:35:38;100018.69;;;31.68;28.77
28306;BME280;7516;43.570;1.448;2023-07-13T16:38:14;100016.78;;;31.14;29.10
28306;BME280;7516;43.570;1.448;2023-07-13T16:40:42;100006.25;;;31.26;28.86
28306;BME280;7516;43.570;1.448;2023-07-13T16:43:12;100012.25;;;31.51;28.12
28306;BME280;7516;43.570;1.448;2023-07-13T16:45:42;100022.28;;;31.50;28.08
28306;BME280;7516;43.570;1.448;2023-07-13T16:48:15;100016.50;;;31.16;28.94
28306;BME280;7516;43.570;1.448;2023-07-13T16:50:43;100014.38;;;31.67;29.36
28306;BME280;7516;43.570;1.448;2023-07-13T16:53:18;100005.69;;;32.15;27.98
28306;BME280;7516;43.570;1.448;2023-07-13T16:55:48;99998.25;;;32.21;26.95
28306;BME280;7516;43.570;1.448;2023-07-13T16:58:17;99995.19;;;32.36;26.46
28306;BME280;7516;43.570;1.448;2023-07-13T17:00:48;100000.22;;;32.51;24.89
28306;BME280;7516;43.570;1.448;2023-07-13T17:03:18;99996.69;;;32.73;24.48
28306;BME280;7516;43.570;1.448;2023-07-13T17:05:47;99997.84;;;32.13;25.82
28306;BME280;7516;43.570;1.448;2023-07-13T17:08:17;100000.66;;;32.44;25.00
28306;BME280;7516;43.570;1.448;2023-07-13T17:10:47;99999.97;;;32.39;24.54
28306;BME280;7516;43.570;1.448;2023-07-13T17:13:18;100001.69;;;32.57;23.87
28306;BME280;7516;43.570;1.448;2023-07-13T17:15:49;100000.41;;;32.10;25.06
28306;BME280;7516;43.570;1.448;2023-07-13T17:18:19;100006.03;;;32.36;24.47
28306;BME280;7516;43.570;1.448;2023-07-13T17:20:47;100000.03;;;32.47;23.45
28306;BME280;7516;43.570;1.448;2023-07-13T17:23:16;99993.84;;;32.56;23.51
28306;BME280;7516;43.570;1.448;2023-07-13T17:25:45;99994.03;;;32.37;23.74
28306;BME280;7516;43.570;1.448;2023-07-13T17:28:13;99990.75;;;32.18;24.55
28306;BME280;7516;43.570;1.448;2023-07-13T17:30:43;99989.41;;;32.60;24.70
28306;BME280;7516;43.570;1.448;2023-07-13T17:33:25;99986.03;;;32.09;24.00
28306;BME280;7516;43.570;1.448;2023-07-13T17:35:54;99983.97;;;32.15;23.92
28306;BME280;7516;43.570;1.448;2023-07-13T17:38:22;99991.13;;;32.78;23.63
28306;BME280;7516;43.570;1.448;2023-07-13T17:40:56;99978.88;;;32.13;23.17
28306;BME280;7516;43.570;1.448;2023-07-13T17:43:24;99978.06;;;31.91;24.06
28306;BME280;7516;43.570;1.448;2023-07-13T17:45:54;99978.75;;;32.41;23.41
28306;BME280;7516;43.570;1.448;2023-07-13T17:48:24;99973.56;;;32.08;23.39
28306;BME280;7516;43.570;1.448;2023-07-13T17:50:53;99970.72;;;31.91;24.20
28306;BME280;7516;43.570;1.448;2023-07-13T17:53:22;99972.34;;;31.92;24.09
28306;BME280;7516;43.570;1.448;2023-07-13T17:55:50;99973.81;;;31.98;23.87
28306;BME280;7516;43.570;1.448;2023-07-13T17:58:18;99975.50;;;31.58;24.24
28306;BME280;7516;43.570;1.448;2023-07-13T18:00:47;99974.94;;;32.20;23.92
28306;BME280;7516;43.570;1.448;2023-07-13T18:03:17;99973.44;;;32.13;23.96
28306;BME280;7516;43.570;1.448;2023-07-13T18:05:47;99964.59;;;31.86;23.95
28306;BME280;7516;43.570;1.448;2023-07-13T18:08:23;99971.31;;;31.66;24.09
28306;BME280;7516;43.570;1.448;2023-07-13T18:10:51;99971.97;;;31.58;24.33
28306;BME280;7516;43.570;1.448;2023-07-13T18:13:19;99972.81;;;31.94;24.79
28306;BME280;7516;43.570;1.448;2023-07-13T18:15:46;99973.75;;;31.90;24.27
28306;BME280;7516;43.570;1.448;2023-07-13T18:18:14;99962.53;;;32.05;23.61
28306;BME280;7516;43.570;1.448;2023-07-13T18:20:42;99970.25;;;32.34;23.65
28306;BME280;7516;43.570;1.448;2023-07-13T18:23:16;99973.81;;;31.98;23.93
28306;BME280;7516;43.570;1.448;2023-07-13T18:25:44;99959.84;;;31.69;24.02
28306;BME280;7516;43.570;1.448;2023-07-13T18:28:14;99966.78;;;31.97;24.15
28306;BME280;7516;43.570;1.448;2023-07-13T18:30:43;99968.94;;;32.09;24.40
28306;BME280;7516;43.570;1.448;2023-07-13T18:33:18;99969.34;;;32.02;24.58
28306;BME280;7516;43.570;1.448;2023-07-13T18:35:47;99962.25;;;31.70;23.92
28306;BME280;7516;43.570;1.448;2023-07-13T18:38:19;99968.50;;;31.57;23.91
28306;BME280;7516;43.570;1.448;2023-07-13T18:40:47;99965.13;;;31.38;24.99
28306;BME280;7516;43.570;1.448;2023-07-13T18:43:15;99962.91;;;31.26;24.81
28306;BME280;7516;43.570;1.448;2023-07-13T18:45:43;99959.00;;;30.78;25.12
28306;BME280;7516;43.570;1.448;2023-07-13T18:48:14;99960.88;;;30.91;25.17
28306;BME280;7516;43.570;1.448;2023-07-13T18:50:43;99959.13;;;30.54;25.51
28306;BME280;7516;43.570;1.448;2023-07-13T18:53:13;99956.78;;;30.47;25.68
28306;BME280;7516;43.570;1.448;2023-07-13T18:55:43;99962.31;;;30.42;25.83
28306;BME280;7516;43.570;1.448;2023-07-13T18:58:11;99959.97;;;30.36;25.76
28306;BME280;7516;43.570;1.448;2023-07-13T19:00:39;99954.19;;;30.42;26.03
28306;BME280;7516;43.570;1.448;2023-07-13T19:03:11;99960.22;;;30.20;26.49
28306;BME280;7516;43.570;1.448;2023-07-13T19:05:41;99961.66;;;29.80;26.83
28306;BME280;7516;43.570;1.448;2023-07-13T19:08:12;99962.72;;;29.61;27.07
28306;BME280;7516;43.570;1.448;2023-07-13T19:10:43;99956.53;;;29.17;27.93
28306;BME280;7516;43.570;1.448;2023-07-13T19:13:16;99951.59;;;29.01;28.07
28306;BME280;7516;43.570;1.448;2023-07-13T19:15:45;99940.72;;;28.53;29.21
28306;BME280;7516;43.570;1.448;2023-07-13T19:38:34;99917.75;;;26.89;32.25
28306;BME280;7516;43.570;1.448;2023-07-13T19:41:02;99925.81;;;26.84;32.04
28306;BME280;7516;43.570;1.448;2023-07-13T19:59:56;99929.69;;;26.33;43.46
28306;BME280;7516;43.570;1.448;2023-07-13T20:02:26;99939.88;;;26.26;46.27
28306;BME280;7516;43.570;1.448;2023-07-13T20:07:29;99943.06;;;25.87;39.83
28306;BME280;7516;43.570;1.448;2023-07-13T20:09:57;99941.44;;;25.86;39.31
28306;BME280;7516;43.570;1.448;2023-07-13T20:12:26;99946.81;;;25.81;40.10
28306;BME280;7516;43.570;1.448;2023-07-13T20:14:55;99938.50;;;25.72;40.65
28306;BME280;7516;43.570;1.448;2023-07-13T20:17:30;99935.53;;;25.74;42.95
28306;BME280;7516;43.570;1.448;2023-07-13T20:19:58;99944.66;;;25.73;43.47
28306;BME280;7516;43.570;1.448;2023-07-13T20:22:26;99938.75;;;25.66;42.95
28306;BME280;7516;43.570;1.448;2023-07-13T20:24:53;99937.91;;;25.60;43.52
28306;BME280;7516;43.570;1.448;2023-07-13T20:27:21;99938.44;;;25.57;43.64
28306;BME280;7516;43.570;1.448;2023-07-13T20:29:49;99944.63;;;25.58;43.82
28306;BME280;7516;43.570;1.448;2023-07-13T20:32:18;99937.88;;;25.50;43.77
28306;BME280;7516;43.570;1.448;2023-07-13T20:34:45;99943.22;;;25.45;44.14
28306;BME280;7516;43.570;1.448;2023-07-13T20:37:29;99939.19;;;25.37;44.22
28306;BME280;7516;43.570;1.448;2023-07-13T20:39:58;99943.44;;;25.33;44.73
28306;BME280;7516;43.570;1.448;2023-07-13T20:42:25;99952.28;;;25.29;45.17
28306;BME280;7516;43.570;1.448;2023-07-13T20:44:53;99948.50;;;25.25;45.94
28306;BME280;7516;43.570;1.448;2023-07-13T20:47:24;99946.38;;;25.22;46.11
28306;BME280;7516;43.570;1.448;2023-07-13T20:49:53;99945.00;;;25.19;45.78
28306;BME280;7516;43.570;1.448;2023-07-13T20:52:21;99951.97;;;25.15;45.93
28306;BME280;7516;43.570;1.448;2023-07-13T20:54:51;99942.56;;;25.13;45.90
28306;BME280;7516;43.570;1.448;2023-07-13T20:57:19;99942.81;;;25.06;45.86
28306;BME280;7516;43.570;1.448;2023-07-13T20:59:52;99944.66;;;25.00;45.92
28306;BME280;7516;43.570;1.448;2023-07-13T21:02:28;99948.94;;;24.96;46.01
28306;BME280;7516;43.570;1.448;2023-07-13T21:04:57;99945.38;;;24.91;46.00
28306;BME280;7516;43.570;1.448;2023-07-13T21:07:26;99952.91;;;24.89;46.01
28306;BME280;7516;43.570;1.448;2023-07-13T21:09:53;99949.91;;;24.85;46.18
28306;BME280;7516;43.570;1.448;2023-07-13T21:12:21;99946.41;;;24.85;46.11
28306;BME280;7516;43.570;1.448;2023-07-13T21:14:50;99947.72;;;24.77;46.21
28306;BME280;7516;43.570;1.448;2023-07-13T21:17:18;99953.03;;;24.72;46.23
28306;BME280;7516;43.570;1.448;2023-07-13T21:19:47;99950.91;;;24.69;46.19
28306;BME280;7516;43.570;1.448;2023-07-13T21:22:14;99951.41;;;24.66;46.23
28306;BME280;7516;43.570;1.448;2023-07-13T21:24:42;99942.00;;;24.63;46.33
28306;BME280;7516;43.570;1.448;2023-07-13T21:27:09;99940.09;;;24.59;46.30
28306;BME280;7516;43.570;1.448;2023-07-13T21:29:37;99936.31;;;24.55;46.22
28306;BME280;7516;43.570;1.448;2023-07-13T21:32:08;99934.41;;;24.50;46.22
28306;BME280;7516;43.570;1.448;2023-07-13T21:34:39;99928.75;;;24.47;46.33
28306;BME280;7516;43.570;1.448;2023-07-13T21:37:16;99934.91;;;24.42;46.42
28306;BME280;7516;43.570;1.448;2023-07-13T21:39:46;99928.41;;;24.38;46.39
28306;BME280;7516;43.570;1.448;2023-07-13T21:42:16;99934.56;;;24.33;46.40
28306;BME280;7516;43.570;1.448;2023-07-13T21:44:43;99932.13;;;24.32;46.33
28306;BME280;7516;43.570;1.448;2023-07-13T21:47:11;99926.78;;;24.32;46.53
28306;BME280;7516;43.570;1.448;2023-07-13T21:49:39;99934.78;;;24.27;46.53
28306;BME280;7516;43.570;1.448;2023-07-13T21:52:15;99924.81;;;24.22;46.64
28306;BME280;7516;43.570;1.448;2023-07-13T21:54:43;99930.94;;;24.18;46.46
28306;BME280;7516;43.570;1.448;2023-07-13T21:57:14;99921.28;;;24.17;46.62
28306;BME280;7516;43.570;1.448;2023-07-13T21:59:42;99909.69;;;24.11;46.45
28306;BME280;7516;43.570;1.448;2023-07-13T22:02:11;99917.44;;;24.08;46.50
28306;BME280;7516;43.570;1.448;2023-07-13T22:04:39;99913.66;;;24.04;46.68
28306;BME280;7516;43.570;1.448;2023-07-13T22:07:09;99910.69;;;24.00;46.75
28306;BME280;7516;43.570;1.448;2023-07-13T22:09:38;99911.19;;;23.97;46.82
28306;BME280;7516;43.570;1.448;2023-07-13T22:12:06;99907.72;;;23.96;46.75
28306;BME280;7516;43.570;1.448;2023-07-13T22:14:34;99911.69;;;23.94;46.75
28306;BME280;7516;43.570;1.448;2023-07-13T22:17:02;99911.09;;;23.87;46.84
28306;BME280;7516;43.570;1.448;2023-07-13T22:19:31;99905.47;;;23.83;46.90
28306;BME280;7516;43.570;1.448;2023-07-13T22:21:59;99907.59;;;23.81;46.79
28306;BME280;7516;43.570;1.448;2023-07-13T22:24:26;99899.00;;;23.79;46.86
28306;BME280;7516;43.570;1.448;2023-07-13T22:26:55;99897.84;;;23.70;47.14
28306;BME280;7516;43.570;1.448;2023-07-13T22:29:25;99901.31;;;23.71;46.88
28306;BME280;7516;43.570;1.448;2023-07-13T22:31:55;99898.59;;;23.66;47.24
28306;BME280;7516;43.570;1.448;2023-07-13T22:34:22;99897.22;;;23.63;47.22
28306;BME280;7516;43.570;1.448;2023-07-13T22:36:50;99897.72;;;23.60;47.03
28306;BME280;7516;43.570;1.448;2023-07-13T22:39:23;99894.50;;;23.58;47.32
28306;BME280;7516;43.570;1.448;2023-07-13T22:41:52;99895.50;;;23.52;47.43
28306;BME280;7516;43.570;1.448;2023-07-13T22:44:22;99905.91;;;23.48;47.48
28306;BME280;7516;43.570;1.448;2023-07-13T22:46:50;99889.03;;;23.48;47.32
28306;BME280;7516;43.570;1.448;2023-07-13T22:49:21;99888.72;;;23.44;47.64
28306;BME280;7516;43.570;1.448;2023-07-13T22:51:51;99890.34;;;23.45;47.49
28306;BME280;7516;43.570;1.448;2023-07-13T22:54:19;99879.84;;;23.39;47.62
28306;BME280;7516;43.570;1.448;2023-07-13T22:56:46;99877.63;;;23.31;47.92
28306;BME280;7516;43.570;1.448;2023-07-13T22:59:14;99871.69;;;23.29;47.90
28306;BME280;7516;43.570;1.448;2023-07-13T23:01:43;99866.84;;;23.25;48.11
28306;BME280;7516;43.570;1.448;2023-07-13T23:04:16;99871.88;;;23.22;48.28
28306;BME280;7516;43.570;1.448;2023-07-13T23:06:44;99868.41;;;23.21;48.54
28306;BME280;7516;43.570;1.448;2023-07-13T23:09:19;99866.53;;;23.22;48.37
28306;BME280;7516;43.570;1.448;2023-07-13T23:11:47;99861.44;;;23.20;48.70
28306;BME280;7516;43.570;1.448;2023-07-13T23:14:15;99861.38;;;23.15;48.71
28306;BME280;7516;43.570;1.448;2023-07-13T23:16:44;99867.50;;;23.11;48.72
28306;BME280;7516;43.570;1.448;2023-07-13T23:19:17;99863.44;;;23.08;49.15
28306;BME280;7516;43.570;1.448;2023-07-13T23:21:47;99859.97;;;23.08;49.11
28306;BME280;7516;43.570;1.448;2023-07-13T23:24:16;99865.25;;;23.03;49.09
28306;BME280;7516;43.570;1.448;2023-07-13T23:26:44;99858.53;;;23.00;49.42
28306;BME280;7516;43.570;1.448;2023-07-13T23:29:11;99858.50;;;22.95;49.38
28306;BME280;7516;43.570;1.448;2023-07-13T23:31:39;99862.47;;;22.93;49.62
28306;BME280;7516;43.570;1.448;2023-07-13T23:34:15;99851.69;;;22.87;49.47
28306;BME280;7516;43.570;1.448;2023-07-13T23:36:45;99854.13;;;22.89;49.48
28306;BME280;7516;43.570;1.448;2023-07-13T23:39:14;99849.28;;;22.86;49.59
28306;BME280;7516;43.570;1.448;2023-07-13T23:41:43;99852.44;;;22.83;49.75
28306;BME280;7516;43.570;1.448;2023-07-13T23:44:12;99846.06;;;22.84;49.77
28306;BME280;7516;43.570;1.448;2023-07-13T23:46:43;99851.06;;;22.80;49.87
28306;BME280;7516;43.570;1.448;2023-07-13T23:49:20;99843.63;;;22.82;49.56
28306;BME280;7516;43.570;1.448;2023-07-13T23:51:49;99838.53;;;22.81;49.82
28306;BME280;7516;43.570;1.448;2023-07-13T23:54:17;99839.56;;;22.80;49.71
28306;BME280;7516;43.570;1.448;2023-07-13T23:56:44;99835.56;;;22.77;49.51
28306;BME280;7516;43.570;1.448;2023-07-13T23:59:12;99836.50;;;22.71;49.96
